Time;durP1;ratioP1;P1;durP2;ratioP2;P2;SDS_P1;SDS_P2;PMS_P1;PMS_P2;Temp;Humidity;BMP_temperature;BMP_pressure;BME280_temperature;BME280_humidity;BME280_pressure;Samples;Min_cycle;Max_cycle;Signal;HPM_P1;HPM_P2
2021/08/04 00:00:23;;;;;;;9.50;8.80;;;15.00;99.90;;;;;;4859552;29;20586;-79
2021/08/04 00:02:50;;;;;;;8.10;7.60;;;14.90;99.90;;;;;;4858721;29;20245;-78
2021/08/04 00:05:17;;;;;;;8.50;7.90;;;15.00;99.90;;;;;;4859589;29;20566;-79
2021/08/04 00:07:45;;;;;;;8.03;7.53;;;15.00;99.90;;;;;;4859490;29;20262;-82
2021/08/04 00:10:12;;;;;;;8.70;8.10;;;14.90;99.90;;;;;;4859791;29;20248;-79
2021/08/04 00:12:39;;;;;;;8.67;8.07;;;14.90;99.90;;;;;;4859469;29;20295;-79
2021/08/04 00:15:09;;;;;;;8.60;8.00;;;14.90;99.90;;;;;;4859464;29;20205;-79
2021/08/04 00:17:36;;;;;;;8.93;8.33;;;14.90;99.90;;;;;;4857860;29;20212;-79
2021/08/04 00:20:05;;;;;;;8.93;8.33;;;14.90;99.90;;;;;;4859544;29;20236;-79
2021/08/04 00:22:33;;;;;;;8.80;8.10;;;14.90;99.90;;;;;;4859459;29;20261;-79
2021/08/04 00:25:01;;;;;;;8.87;8.27;;;14.90;99.90;;;;;;4857900;29;20275;-79
2021/08/04 00:27:28;;;;;;;8.60;8.07;;;14.90;99.90;;;;;;4863283;29;20208;-79
2021/08/04 00:29:56;;;;;;;8.00;7.50;;;14.90;99.90;;;;;;4858911;29;20261;-79
2021/08/04 00:32:23;;;;;;;8.20;7.70;;;14.90;99.90;;;;;;4861570;29;20210;-80
2021/08/04 00:34:51;;;;;;;8.50;7.80;;;14.80;99.90;;;;;;4860428;29;20206;-79
2021/08/04 00:37:18;;;;;;;8.20;7.70;;;14.90;99.90;;;;;;4859887;29;20201;-79
2021/08/04 00:39:46;;;;;;;8.50;7.80;;;14.80;99.90;;;;;;4860145;29;20261;-80
2021/08/04 00:42:17;;;;;;;8.07;7.57;;;14.90;99.90;;;;;;4864338;29;20225;-80
2021/08/04 00:44:44;;;;;;;8.30;7.70;;;14.80;99.90;;;;;;4863898;29;20660;-80
2021/08/04 00:47:10;;;;;;;8.23;7.53;;;14.90;99.90;;;;;;4863537;29;20225;-80
2021/08/04 00:49:39;;;;;;;8.50;7.93;;;14.90;99.90;;;;;;4863399;29;20580;-79
2021/08/04 00:52:07;;;;;;;8.70;8.10;;;14.90;99.90;;;;;;4863625;29;20206;-80
2021/08/04 00:54:35;;;;;;;8.40;7.90;;;14.90;99.90;;;;;;4863429;29;20197;-79
2021/08/04 00:57:03;;;;;;;8.10;7.60;;;14.90;99.90;;;;;;4862575;29;20686;-80
2021/08/04 00:59:31;;;;;;;8.13;7.63;;;14.90;99.90;;;;;;4863334;29;20488;-80
2021/08/04 01:02:04;;;;;;;8.17;7.67;;;14.90;99.90;;;;;;4867882;29;20204;-80
2021/08/04 01:04:35;;;;;;;8.13;7.53;;;14.80;99.90;;;;;;4878137;29;20221;-79
2021/08/04 01:07:07;;;;;;;8.67;8.00;;;14.80;99.90;;;;;;4870942;29;20221;-79
2021/08/04 01:09:41;;;;;;;8.23;7.73;;;14.80;99.90;;;;;;4862964;29;20570;-79
2021/08/04 01:12:11;;;;;;;9.30;8.70;;;14.80;99.90;;;;;;4863741;29;20272;-79
2021/08/04 01:14:42;;;;;;;7.93;7.43;;;14.80;99.90;;;;;;4862488;29;20202;-78
2021/08/04 01:17:11;;;;;;;8.23;7.73;;;14.80;99.90;;;;;;4862183;29;20508;-79
2021/08/04 01:19:54;;;;;;;8.17;7.67;;;14.70;99.90;;;;;;4862374;29;20663;-79
2021/08/04 01:22:33;;;;;;;8.40;7.80;;;14.80;99.90;;;;;;4863635;29;20194;-79
2021/08/04 01:25:06;;;;;;;8.37;7.77;;;14.70;99.90;;;;;;4870690;29;20278;-78
2021/08/04 01:27:34;;;;;;;8.47;7.87;;;14.70;99.90;;;;;;4876772;29;20206;-79
2021/08/04 01:30:03;;;;;;;11.47;10.77;;;14.70;99.90;;;;;;4862183;29;20190;-78
2021/08/04 01:32:30;;;;;;;9.60;8.87;;;14.60;99.90;;;;;;4863143;29;20206;-79
2021/08/04 01:35:02;;;;;;;9.47;8.87;;;14.60;99.90;;;;;;4868100;29;20186;-80
2021/08/04 01:37:29;;;;;;;9.20;8.60;;;14.60;99.90;;;;;;4938560;23;20226;-79
2021/08/04 01:39:57;;;;;;;9.30;8.70;;;14.60;99.90;;;;;;4924836;29;20231;-78
2021/08/04 01:42:24;;;;;;;9.33;8.53;;;14.60;99.90;;;;;;4923629;29;20251;-78
2021/08/04 01:44:56;;;;;;;9.37;8.77;;;14.60;99.90;;;;;;4923153;29;20275;-79
2021/08/04 01:47:23;;;;;;;8.97;8.27;;;14.60;99.90;;;;;;4925460;29;20220;-78
2021/08/04 01:49:50;;;;;;;8.67;8.07;;;14.60;99.90;;;;;;4921057;29;20219;-79
2021/08/04 01:52:18;;;;;;;8.70;8.10;;;14.60;99.90;;;;;;4921551;29;20229;-78
2021/08/04 01:54:46;;;;;;;8.93;8.27;;;14.60;99.90;;;;;;4924654;29;20224;-79
2021/08/04 01:57:12;;;;;;;9.47;8.83;;;14.50;99.90;;;;;;4924880;29;20218;-79
2021/08/04 01:59:39;;;;;;;9.47;8.87;;;14.50;99.90;;;;;;4923232;29;20260;-79
2021/08/04 02:02:19;;;;;;;5.50;3.20;;;14.50;99.90;;;;;;4921830;29;20217;-78
2021/08/04 02:04:46;;;;;;;4.00;3.60;;;14.50;99.90;;;;;;4921193;29;20219;-78
2021/08/04 02:07:27;;;;;;;9.10;8.50;;;14.50;99.90;;;;;;4918261;29;20228;-79
2021/08/04 02:09:55;;;;;;;7.17;6.67;;;14.50;99.90;;;;;;4923255;29;20203;-78
2021/08/04 02:12:22;;;;;;;9.37;8.77;;;14.50;99.90;;;;;;4916502;29;20260;-79
2021/08/04 02:14:57;;;;;;;9.50;8.77;;;14.50;99.90;;;;;;4924292;29;20226;-78
2021/08/04 02:17:33;;;;;;;3.53;3.23;;;14.50;99.90;;;;;;4922573;29;20740;-79
2021/08/04 02:20:05;;;;;;;4.83;3.10;;;14.50;99.90;;;;;;4914567;29;20204;-78
2021/08/04 02:22:38;;;;;;;3.90;3.50;;;14.50;99.90;;;;;;4917203;29;20212;-79
2021/08/04 02:25:08;;;;;;;3.70;3.37;;;14.50;99.90;;;;;;4918697;29;20210;-78
2021/08/04 02:27:39;;;;;;;10.00;9.30;;;14.40;99.90;;;;;;4923320;29;20220;-79
2021/08/04 02:30:08;;;;;;;9.90;9.10;;;14.40;99.90;;;;;;4921120;29;20207;-78
2021/08/04 02:32:37;;;;;;;9.47;8.87;;;14.50;99.90;;;;;;4923416;29;20211;-78
2021/08/04 02:35:05;;;;;;;9.53;8.93;;;14.50;99.90;;;;;;4927154;29;20219;-79
2021/08/04 02:37:33;;;;;;;9.53;8.87;;;14.50;99.90;;;;;;4913376;29;20231;-78
2021/08/04 02:40:00;;;;;;;10.43;9.73;;;14.50;99.90;;;;;;4916887;29;20204;-78
2021/08/04 02:42:29;;;;;;;11.33;10.50;;;14.50;99.90;;;;;;4916191;29;20259;-78
2021/08/04 02:44:56;;;;;;;10.20;9.50;;;14.50;99.90;;;;;;4917598;29;20253;-78
2021/08/04 02:47:23;;;;;;;10.03;9.33;;;14.50;99.90;;;;;;4937192;29;20311;-79
2021/08/04 02:49:52;;;;;;;9.70;9.10;;;14.50;99.90;;;;;;4922348;29;20661;-79
2021/08/04 02:52:20;;;;;;;3.50;3.20;;;14.50;99.90;;;;;;4923287;29;20184;-78
2021/08/04 02:54:48;;;;;;;3.20;3.00;;;14.40;99.90;;;;;;4939006;29;20219;-79
2021/08/04 02:57:15;;;;;;;4.50;3.10;;;14.40;99.90;;;;;;4944029;29;20211;-77
2021/08/04 02:59:42;;;;;;;7.60;7.10;;;14.40;99.90;;;;;;4944460;29;20207;-78
2021/08/04 03:02:09;;;;;;;9.30;8.57;;;14.40;99.90;;;;;;4930194;29;20220;-78
2021/08/04 03:04:36;;;;;;;3.50;3.20;;;14.40;99.90;;;;;;4943279;29;20207;-78
2021/08/04 03:07:04;;;;;;;7.50;6.90;;;14.40;99.90;;;;;;4918569;29;20212;-77
2021/08/04 03:09:31;;;;;;;3.27;2.97;;;14.40;99.90;;;;;;4927978;29;20202;-79
2021/08/04 03:11:58;;;;;;;9.57;8.97;;;14.30;99.90;;;;;;4924536;29;20263;-81
2021/08/04 03:14:25;;;;;;;4.03;3.63;;;14.40;99.90;;;;;;4921119;29;20653;-79
2021/08/04 03:16:52;;;;;;;3.83;3.47;;;14.40;99.90;;;;;;4914294;29;20227;-79
2021/08/04 03:19:18;;;;;;;8.30;7.60;;;14.40;99.90;;;;;;4912049;29;20199;-82
2021/08/04 03:21:45;;;;;;;3.97;3.20;;;14.40;99.90;;;;;;4918309;29;20602;-77
2021/08/04 03:24:14;;;;;;;4.83;4.17;;;14.40;99.90;;;;;;4910219;29;20587;-79
2021/08/04 03:26:41;;;;;;;11.70;10.73;;;14.40;99.90;;;;;;4916127;29;20227;-78
2021/08/04 03:29:07;;;;;;;14.57;13.07;;;14.40;99.90;;;;;;4915885;29;20626;-78
2021/08/04 03:31:34;;;;;;;15.17;13.73;;;14.40;99.90;;;;;;4913752;29;20207;-78
2021/08/04 03:34:01;;;;;;;15.57;14.00;;;14.40;99.90;;;;;;4915635;29;20221;-78
2021/08/04 03:36:28;;;;;;;13.87;12.47;;;14.40;99.90;;;;;;4915598;29;20273;-78
2021/08/04 03:38:55;;;;;;;14.27;12.87;;;14.40;99.90;;;;;;4916987;29;20217;-78
2021/08/04 03:41:24;;;;;;;14.37;12.87;;;14.40;99.90;;;;;;4915921;29;20229;-77
2021/08/04 03:43:51;;;;;;;13.93;12.73;;;14.40;99.90;;;;;;4919770;29;20228;-78
2021/08/04 03:46:17;;;;;;;13.30;12.20;;;14.40;99.90;;;;;;4914068;29;20227;-78
2021/08/04 03:48:44;;;;;;;13.47;12.37;;;14.40;99.90;;;;;;4914120;29;20227;-78
2021/08/04 03:51:11;;;;;;;12.67;11.77;;;14.40;99.90;;;;;;4915271;29;20199;-78
2021/08/04 03:53:38;;;;;;;13.10;12.10;;;14.40;99.90;;;;;;4915988;29;20223;-78
2021/08/04 03:56:05;;;;;;;7.93;7.23;;;14.40;99.90;;;;;;4916207;29;20208;-78
2021/08/04 03:58:33;;;;;;;5.87;4.47;;;14.40;99.90;;;;;;4916405;29;20227;-78
2021/08/04 04:01:00;;;;;;;4.83;4.33;;;14.40;99.90;;;;;;4915901;29;20207;-78
2021/08/04 04:03:27;;;;;;;4.97;4.40;;;14.40;99.90;;;;;;4916652;29;20275;-78
2021/08/04 04:05:53;;;;;;;5.03;4.20;;;14.50;99.90;;;;;;4916316;29;20223;-78
2021/08/04 04:08:20;;;;;;;4.70;3.97;;;14.40;99.90;;;;;;4917947;29;20714;-79
2021/08/04 04:10:47;;;;;;;4.40;4.00;;;14.50;99.90;;;;;;4916445;29;20211;-78
2021/08/04 04:13:14;;;;;;;4.73;4.30;;;14.50;99.90;;;;;;4919688;29;20196;-78
2021/08/04 04:15:42;;;;;;;6.63;3.90;;;14.50;99.90;;;;;;4916839;29;20650;-78
2021/08/04 04:18:09;;;;;;;5.20;4.70;;;14.50;99.90;;;;;;4915971;29;20263;-78
2021/08/04 04:20:36;;;;;;;4.67;4.20;;;14.50;99.90;;;;;;4917222;29;20196;-78
2021/08/04 04:23:03;;;;;;;7.10;5.30;;;14.50;99.90;;;;;;4917898;29;20250;-78
2021/08/04 04:25:29;;;;;;;7.17;5.90;;;14.50;99.90;;;;;;4918487;29;20219;-78
2021/08/04 04:27:56;;;;;;;8.97;6.80;;;14.50;99.90;;;;;;4912409;29;20275;-78
2021/08/04 04:30:23;;;;;;;9.20;6.60;;;14.50;99.90;;;;;;4913059;29;20211;-78
2021/08/04 04:32:51;;;;;;;10.43;7.07;;;14.50;99.90;;;;;;4917265;29;20207;-78
2021/08/04 04:35:18;;;;;;;8.83;6.40;;;14.50;99.90;;;;;;4916427;29;20204;-78
2021/08/04 04:37:44;;;;;;;8.53;6.57;;;14.50;99.90;;;;;;4918702;29;20247;-78
2021/08/04 04:40:12;;;;;;;10.17;6.80;;;14.50;99.90;;;;;;4913555;29;20200;-77
2021/08/04 04:42:38;;;;;;;8.93;8.03;;;14.50;99.90;;;;;;4915269;29;20227;-79
2021/08/04 04:45:06;;;;;;;14.73;13.53;;;14.60;99.90;;;;;;4913470;29;20215;-79
2021/08/04 04:47:33;;;;;;;13.77;12.57;;;14.60;99.90;;;;;;4915471;29;20243;-79
2021/08/04 04:50:01;;;;;;;13.63;12.27;;;14.60;99.90;;;;;;4914802;29;20207;-78
2021/08/04 04:52:28;;;;;;;11.60;10.40;;;14.60;99.90;;;;;;4918162;29;20200;-79
2021/08/04 04:54:55;;;;;;;14.97;13.77;;;14.60;99.90;;;;;;4918890;29;20203;-78
2021/08/04 04:57:22;;;;;;;13.83;12.73;;;14.70;99.90;;;;;;4914953;29;20298;-78
2021/08/04 04:59:49;;;;;;;9.37;6.73;;;14.70;99.90;;;;;;4916454;29;20232;-79
2021/08/04 05:02:15;;;;;;;7.20;5.63;;;14.80;99.90;;;;;;4918695;29;20553;-78
2021/08/04 05:04:42;;;;;;;12.33;11.33;;;14.80;99.90;;;;;;4913897;29;20200;-78
2021/08/04 05:07:10;;;;;;;7.43;6.63;;;14.90;99.90;;;;;;4916824;29;20292;-78
2021/08/04 05:09:37;;;;;;;12.20;10.93;;;14.90;99.90;;;;;;4916119;29;20657;-79
2021/08/04 05:12:05;;;;;;;14.37;13.13;;;15.00;99.90;;;;;;4914882;29;20560;-78
2021/08/04 05:14:32;;;;;;;13.53;12.40;;;15.10;99.90;;;;;;4916791;29;20203;-78
2021/08/04 05:16:58;;;;;;;13.13;12.13;;;15.20;99.90;;;;;;4912305;29;20246;-78
2021/08/04 05:19:25;;;;;;;6.20;4.90;;;15.20;99.90;;;;;;4914311;29;20197;-78
2021/08/04 05:21:52;;;;;;;5.30;4.67;;;15.30;99.90;;;;;;4914548;29;20644;-78
2021/08/04 05:24:20;;;;;;;4.87;4.37;;;15.40;99.90;;;;;;4914931;29;20268;-78
2021/08/04 05:26:47;;;;;;;11.30;10.60;;;15.30;99.90;;;;;;4917756;29;20243;-78
2021/08/04 05:29:13;;;;;;;10.13;9.43;;;15.30;99.90;;;;;;4919050;29;20233;-79
2021/08/04 05:31:40;;;;;;;10.70;10.00;;;15.40;99.90;;;;;;4914996;29;20231;-78
2021/08/04 05:34:07;;;;;;;10.50;9.80;;;15.50;99.90;;;;;;4918945;29;20196;-78
2021/08/04 05:36:34;;;;;;;10.73;10.03;;;15.60;99.90;;;;;;4919353;29;20261;-78
2021/08/04 05:39:01;;;;;;;10.13;9.53;;;15.60;99.90;;;;;;4920172;29;20281;-78
2021/08/04 05:41:29;;;;;;;10.43;9.73;;;15.80;99.90;;;;;;4918821;29;20234;-78
2021/08/04 05:43:55;;;;;;;10.63;9.93;;;16.00;99.90;;;;;;4920006;29;20690;-78
2021/08/04 05:46:22;;;;;;;4.20;3.80;;;16.10;99.90;;;;;;4920946;29;20242;-79
2021/08/04 05:48:49;;;;;;;4.30;3.90;;;16.30;99.90;;;;;;4917376;29;20567;-79
2021/08/04 05:51:16;;;;;;;3.83;3.50;;;16.40;99.90;;;;;;4919400;29;20621;-78
2021/08/04 05:53:43;;;;;;;11.33;10.63;;;16.50;99.90;;;;;;4920098;29;20197;-78
2021/08/04 05:56:09;;;;;;;10.03;9.33;;;16.60;99.90;;;;;;4920793;29;20215;-79
2021/08/04 05:58:38;;;;;;;8.20;7.60;;;16.70;99.90;;;;;;4921551;29;20197;-78
2021/08/04 06:01:04;;;;;;;8.73;8.13;;;16.80;99.90;;;;;;4919969;29;20195;-79
2021/08/04 06:03:31;;;;;;;10.97;10.17;;;17.00;99.90;;;;;;4921081;29;20589;-79
2021/08/04 06:05:58;;;;;;;9.90;9.20;;;17.00;99.90;;;;;;4920334;29;20290;-78
2021/08/04 06:08:25;;;;;;;10.33;9.43;;;17.10;99.90;;;;;;4920100;29;20207;-79
2021/08/04 06:10:52;;;;;;;9.50;8.90;;;17.10;99.90;;;;;;4918312;29;20215;-78
2021/08/04 06:13:18;;;;;;;8.50;8.00;;;17.20;99.90;;;;;;4918644;29;20224;-78
2021/08/04 06:15:47;;;;;;;10.63;10.00;;;17.20;99.90;;;;;;4919540;29;20574;-78
2021/08/04 06:18:13;;;;;;;4.93;4.57;;;17.30;99.90;;;;;;4919594;29;20201;-79
2021/08/04 06:20:40;;;;;;;5.03;4.57;;;17.30;99.90;;;;;;4919220;29;20238;-78
2021/08/04 06:23:07;;;;;;;8.10;7.43;;;17.40;99.90;;;;;;4917898;29;20200;-79
2021/08/04 06:25:34;;;;;;;9.60;9.00;;;17.50;99.90;;;;;;4917910;29;20684;-78
2021/08/04 06:28:00;;;;;;;10.40;9.70;;;17.60;99.90;;;;;;4918255;29;20250;-79
2021/08/04 06:30:27;;;;;;;7.30;6.80;;;17.80;99.90;;;;;;4917569;29;20195;-80
2021/08/04 06:32:55;;;;;;;9.80;9.13;;;18.10;99.90;;;;;;4918833;29;20225;-78
2021/08/04 06:35:22;;;;;;;10.80;10.10;;;18.30;99.90;;;;;;4916257;29;20195;-79
2021/08/04 06:37:49;;;;;;;9.50;8.90;;;18.50;99.90;;;;;;4916267;29;20216;-78
2021/08/04 06:40:16;;;;;;;5.80;5.40;;;18.70;99.90;;;;;;4918027;29;20203;-79
2021/08/04 06:42:43;;;;;;;6.27;5.87;;;18.80;99.90;;;;;;4919351;29;20197;-79
2021/08/04 06:45:11;;;;;;;9.20;8.60;;;19.30;99.90;;;;;;4917673;29;20253;-79
2021/08/04 06:47:37;;;;;;;8.77;8.17;;;19.70;99.90;;;;;;4921958;29;20635;-79
2021/08/04 06:50:07;;;;;;;6.30;5.90;;;20.20;99.90;;;;;;4922275;29;20199;-79
2021/08/04 06:52:34;;;;;;;9.77;9.13;;;20.40;99.90;;;;;;4919206;29;20642;-78
2021/08/04 06:55:00;;;;;;;10.63;9.93;;;20.20;99.90;;;;;;4921433;29;20203;-79
2021/08/04 06:57:27;;;;;;;10.40;9.70;;;20.00;99.90;;;;;;4919680;29;20239;-79
2021/08/04 06:59:54;;;;;;;9.53;8.73;;;19.80;99.90;;;;;;4922291;29;20254;-79
2021/08/04 07:02:21;;;;;;;8.93;8.33;;;19.70;99.90;;;;;;4920630;29;20669;-78
2021/08/04 07:04:48;;;;;;;10.10;9.43;;;19.80;99.90;;;;;;4921740;29;20195;-79
2021/08/04 07:07:16;;;;;;;9.37;8.77;;;19.80;99.90;;;;;;4924876;29;20227;-77
2021/08/04 07:09:44;;;;;;;10.10;9.50;;;19.70;99.90;;;;;;4922093;29;20202;-78
2021/08/04 07:12:11;;;;;;;10.37;9.70;;;19.70;99.90;;;;;;4920551;29;20219;-79
2021/08/04 07:14:38;;;;;;;9.80;9.20;;;19.70;99.90;;;;;;4924531;29;20302;-78
2021/08/04 07:17:06;;;;;;;9.37;8.77;;;19.90;99.90;;;;;;4924720;29;20211;-79
2021/08/04 07:19:33;;;;;;;9.27;8.67;;;19.90;99.90;;;;;;4922696;29;20200;-79
2021/08/04 07:22:01;;;;;;;8.53;7.90;;;19.80;99.90;;;;;;4923425;29;20731;-79
2021/08/04 07:24:29;;;;;;;6.03;5.43;;;19.80;99.90;;;;;;4924630;29;20207;-79
2021/08/04 07:26:56;;;;;;;5.67;5.20;;;19.90;99.90;;;;;;4920451;29;20218;-79
2021/08/04 07:29:23;;;;;;;5.90;5.40;;;20.00;99.90;;;;;;4925336;29;20207;-79
2021/08/04 07:31:50;;;;;;;10.07;9.37;;;20.20;99.90;;;;;;4925075;29;20199;-79
2021/08/04 07:34:21;;;;;;;3.87;3.40;;;20.10;99.90;;;;;;4924084;29;20236;-79
2021/08/04 07:36:49;;;;;;;8.17;7.67;;;20.00;99.90;;;;;;4940788;23;20324;-79
2021/08/04 07:39:16;;;;;;;9.30;8.60;;;19.80;99.90;;;;;;4906285;29;20237;-79
2021/08/04 07:41:45;;;;;;;9.10;8.47;;;19.70;99.90;;;;;;4907764;29;20209;-80
2021/08/04 07:44:11;;;;;;;9.17;8.57;;;19.90;99.90;;;;;;4906100;29;20209;-80
2021/08/04 07:46:38;;;;;;;9.33;8.63;;;19.80;99.90;;;;;;4906968;29;20278;-80
2021/08/04 07:49:05;;;;;;;9.17;8.60;;;19.90;99.90;;;;;;4903041;29;20217;-81
2021/08/04 07:51:32;;;;;;;9.00;8.40;;;20.10;99.90;;;;;;4902642;29;20234;-80
2021/08/04 07:53:59;;;;;;;8.83;8.27;;;19.90;99.90;;;;;;4910058;29;20194;-80
2021/08/04 07:56:26;;;;;;;9.03;8.43;;;19.80;99.90;;;;;;4902454;29;20279;-79
2021/08/04 07:58:54;;;;;;;9.10;8.50;;;19.70;99.90;;;;;;4905568;29;20203;-79
2021/08/04 08:01:21;;;;;;;8.70;8.10;;;19.90;99.90;;;;;;4904811;29;20255;-80
2021/08/04 08:03:47;;;;;;;8.80;8.20;;;20.20;99.90;;;;;;4906204;29;20283;-80
2021/08/04 08:06:14;;;;;;;2.87;2.67;;;20.60;99.90;;;;;;4906366;29;20258;-79
2021/08/04 08:08:41;;;;;;;4.80;3.83;;;21.20;99.90;;;;;;4906795;29;20262;-80
2021/08/04 08:11:08;;;;;;;3.80;3.37;;;21.50;99.90;;;;;;4904802;29;20295;-80
2021/08/04 08:13:35;;;;;;;8.30;7.80;;;21.80;99.90;;;;;;4910188;29;20253;-80
2021/08/04 08:16:03;;;;;;;3.73;3.07;;;22.10;99.90;;;;;;4906489;29;20226;-80
2021/08/04 08:18:30;;;;;;;3.47;3.17;;;22.10;99.90;;;;;;4909188;29;20197;-81
2021/08/04 08:20:57;;;;;;;9.10;8.47;;;22.20;99.90;;;;;;4903319;29;20229;-80
2021/08/04 08:23:24;;;;;;;5.00;4.60;;;22.20;99.90;;;;;;4911165;29;20275;-80
2021/08/04 08:25:52;;;;;;;3.07;2.77;;;22.20;99.90;;;;;;4906588;29;20192;-80
2021/08/04 08:28:19;;;;;;;3.03;2.73;;;22.40;99.90;;;;;;4902366;29;20224;-80
2021/08/04 08:30:47;;;;;;;8.60;8.10;;;22.60;99.90;;;;;;4906198;29;20200;-80
2021/08/04 08:33:15;;;;;;;3.80;3.50;;;22.60;99.90;;;;;;4903418;29;20261;-80
2021/08/04 08:35:42;;;;;;;6.17;5.70;;;22.60;99.90;;;;;;4904878;29;20241;-80
2021/08/04 08:38:09;;;;;;;3.00;2.80;;;22.60;99.90;;;;;;4904841;29;20224;-80
2021/08/04 08:40:35;;;;;;;8.23;7.53;;;22.70;99.90;;;;;;4904669;29;20249;-80
2021/08/04 08:43:03;;;;;;;8.90;8.30;;;22.70;99.90;;;;;;4907233;29;20216;-80
2021/08/04 08:45:30;;;;;;;7.87;7.37;;;22.80;99.90;;;;;;4905565;29;20224;-80
2021/08/04 08:47:57;;;;;;;8.73;8.13;;;23.10;99.90;;;;;;4907965;29;20223;-80
2021/08/04 08:50:26;;;;;;;9.63;9.03;;;23.20;99.90;;;;;;4908677;29;20199;-80
2021/08/04 08:52:54;;;;;;;9.97;9.27;;;23.10;99.90;;;;;;4900828;29;20217;-81
2021/08/04 08:55:21;;;;;;;8.83;8.30;;;23.20;99.90;;;;;;4907034;29;20224;-81
2021/08/04 08:57:48;;;;;;;9.63;8.83;;;23.20;99.90;;;;;;4905630;29;20702;-80
2021/08/04 09:00:16;;;;;;;2.93;2.73;;;23.30;99.90;;;;;;4903506;29;20229;-80
2021/08/04 09:02:44;;;;;;;3.90;3.67;;;23.50;99.90;;;;;;4904592;29;20227;-80
2021/08/04 09:05:12;;;;;;;3.30;3.10;;;23.60;99.90;;;;;;4910103;29;20286;-80
2021/08/04 09:07:42;;;;;;;4.30;3.90;;;23.70;99.90;;;;;;4906662;29;20216;-80
2021/08/04 09:10:25;;;;;;;7.47;6.87;;;23.70;99.90;;;;;;4908293;29;20252;-80
2021/08/04 09:12:53;;;;;;;5.50;5.10;;;23.80;99.90;;;;;;4915860;29;20216;-80
2021/08/04 09:15:29;;;;;;;2.90;2.70;;;23.80;99.90;;;;;;4907798;29;20607;-80
2021/08/04 09:18:05;;;;;;;2.77;2.50;;;23.80;99.90;;;;;;4907551;29;20285;-80
2021/08/04 09:20:46;;;;;;;8.37;7.87;;;23.40;99.90;;;;;;4906432;29;20268;-80
2021/08/04 09:23:16;;;;;;;9.13;8.53;;;23.10;99.90;;;;;;4907972;29;20204;-80
2021/08/04 09:26:01;;;;;;;8.70;8.20;;;23.10;99.90;;;;;;4908561;29;20204;-80
2021/08/04 09:28:28;;;;;;;9.20;8.60;;;22.90;99.90;;;;;;4908909;29;20315;-80
2021/08/04 09:31:01;;;;;;;8.30;7.80;;;22.70;99.90;;;;;;4902692;29;20645;-80
2021/08/04 09:33:33;;;;;;;8.50;8.00;;;22.90;99.90;;;;;;4910979;29;20679;-80
2021/08/04 09:36:00;;;;;;;8.50;8.00;;;22.40;99.90;;;;;;4897475;29;20658;-80
2021/08/04 09:38:29;;;;;;;8.60;8.10;;;21.90;99.90;;;;;;4904862;29;20679;-79
2021/08/04 09:41:11;;;;;;;8.60;8.10;;;21.60;99.90;;;;;;4908144;29;20196;-80
2021/08/04 09:43:38;;;;;;;9.00;8.40;;;21.30;99.90;;;;;;4907983;29;20267;-79
2021/08/04 09:46:05;;;;;;;8.37;7.87;;;20.80;99.90;;;;;;4907366;29;20196;-80
2021/08/04 09:48:32;;;;;;;7.97;7.47;;;20.80;99.90;;;;;;4914384;29;20275;-79
2021/08/04 09:51:00;;;;;;;8.50;8.00;;;20.90;99.90;;;;;;4906047;29;20200;-79
2021/08/04 09:53:31;;;;;;;8.17;7.67;;;21.00;99.90;;;;;;4909477;29;20270;-79
2021/08/04 09:56:06;;;;;;;8.03;7.53;;;21.60;99.90;;;;;;4896022;29;20200;-80
2021/08/04 09:58:33;;;;;;;8.17;7.67;;;22.30;99.90;;;;;;4909603;29;20200;-79
2021/08/04 10:01:01;;;;;;;8.20;7.70;;;23.00;99.90;;;;;;4909859;29;20233;-81
2021/08/04 10:03:28;;;;;;;3.33;2.50;;;23.20;99.90;;;;;;4916931;29;20286;-80
2021/08/04 10:05:55;;;;;;;6.67;6.17;;;23.30;99.90;;;;;;4910363;29;20195;-80
2021/08/04 10:08:22;;;;;;;7.67;7.17;;;23.40;99.90;;;;;;4909920;29;20306;-80
2021/08/04 10:10:52;;;;;;;8.33;7.73;;;23.60;99.90;;;;;;4902442;29;20235;-81
2021/08/04 10:13:20;;;;;;;2.80;2.60;;;23.70;99.90;;;;;;4908971;29;20574;-80
2021/08/04 10:15:50;;;;;;;3.73;2.77;;;23.80;99.90;;;;;;4905695;29;20252;-80
2021/08/04 10:18:21;;;;;;;3.57;3.27;;;23.70;99.90;;;;;;4906495;29;20296;-81
2021/08/04 10:20:50;;;;;;;7.87;7.37;;;23.20;99.90;;;;;;4909204;29;20200;-80
2021/08/04 10:23:19;;;;;;;8.23;7.63;;;23.10;99.90;;;;;;4901675;29;20201;-80
2021/08/04 10:25:47;;;;;;;8.30;7.80;;;22.70;99.90;;;;;;4908327;29;20199;-80
2021/08/04 10:28:16;;;;;;;8.30;7.80;;;22.40;99.90;;;;;;4910244;29;20302;-80
2021/08/04 10:30:45;;;;;;;7.63;7.23;;;22.10;99.90;;;;;;4910764;29;20211;-79
2021/08/04 10:33:13;;;;;;;7.90;7.40;;;22.10;99.90;;;;;;4910868;29;20295;-80
2021/08/04 10:35:44;;;;;;;8.60;8.10;;;22.00;99.90;;;;;;4908778;29;20192;-81
2021/08/04 10:38:14;;;;;;;8.27;7.70;;;21.90;99.90;;;;;;4909616;29;20668;-81
2021/08/04 10:40:41;;;;;;;8.53;8.00;;;22.10;99.90;;;;;;4906784;29;20200;-80
2021/08/04 10:43:08;;;;;;;8.10;7.60;;;22.30;99.90;;;;;;4908808;29;20230;-81
2021/08/04 10:45:37;;;;;;;8.20;7.70;;;22.30;99.90;;;;;;4910138;29;20200;-80
2021/08/04 10:48:26;;;;;;;8.27;7.77;;;22.20;99.90;;;;;;4911483;29;20223;-80
2021/08/04 10:51:13;;;;;;;8.20;7.70;;;22.30;99.90;;;;;;4910576;29;20260;-81
2021/08/04 10:54:14;;;;;;;9.17;8.50;;;22.10;99.90;;;;;;4909132;29;20633;-81
2021/08/04 10:57:10;;;;;;;8.70;8.10;;;22.10;99.90;;;;;;4908300;29;20212;-81
2021/08/04 10:59:41;;;;;;;8.50;7.90;;;22.10;99.90;;;;;;4906709;29;20200;-81
2021/08/04 11:02:43;;;;;;;7.80;7.30;;;22.30;99.90;;;;;;4907564;29;20205;-80
2021/08/04 11:05:10;;;;;;;8.17;7.67;;;22.60;99.90;;;;;;4901884;29;20213;-80
2021/08/04 11:07:37;;;;;;;8.10;7.50;;;22.40;99.90;;;;;;4908501;29;20224;-80
2021/08/04 11:10:06;;;;;;;7.90;7.40;;;22.40;99.90;;;;;;4906885;29;20271;-80
2021/08/04 11:12:47;;;;;;;7.80;7.30;;;22.30;99.90;;;;;;4907298;29;20272;-80
2021/08/04 11:15:35;;;;;;;8.20;7.70;;;22.20;99.90;;;;;;4905481;29;20729;-81
2021/08/04 11:18:09;;;;;;;8.57;8.07;;;22.50;99.90;;;;;;4899879;29;20670;-80
2021/08/04 11:20:39;;;;;;;8.40;7.90;;;22.80;99.90;;;;;;4911351;29;20198;-80
2021/08/04 11:23:09;;;;;;;8.70;8.20;;;22.70;99.90;;;;;;4907304;29;20259;-80
2021/08/04 11:25:42;;;;;;;8.70;8.20;;;23.00;99.90;;;;;;4904775;29;20203;-80
2021/08/04 11:28:16;;;;;;;8.67;8.17;;;23.20;99.90;;;;;;4908630;29;20241;-80
2021/08/04 11:30:50;;;;;;;8.93;8.43;;;23.20;99.90;;;;;;4918079;29;20188;-81
2021/08/04 11:33:35;;;;;;;8.90;8.30;;;23.40;99.90;;;;;;4907145;29;20196;-80
2021/08/04 11:36:14;;;;;;;7.70;7.20;;;23.50;99.90;;;;;;4897617;29;20200;-80
2021/08/04 11:39:03;;;;;;;2.30;2.20;;;23.70;99.90;;;;;;4906481;29;20921;-80
2021/08/04 11:41:40;;;;;;;3.90;3.70;;;23.70;99.90;;;;;;4901879;29;20587;-80
2021/08/04 11:44:19;;;;;;;2.40;2.20;;;23.70;99.90;;;;;;4905569;29;20311;-80
2021/08/04 11:46:49;;;;;;;7.90;7.40;;;23.70;99.90;;;;;;4907645;29;20720;-80
2021/08/04 11:49:20;;;;;;;2.60;2.43;;;23.60;99.90;;;;;;4906541;29;20232;-80
2021/08/04 11:51:50;;;;;;;7.70;7.10;;;23.60;99.90;;;;;;4908473;29;20207;-81
2021/08/04 11:54:29;;;;;;;8.00;7.50;;;23.70;99.90;;;;;;4907367;29;20230;-80
2021/08/04 11:56:56;;;;;;;8.40;7.80;;;23.60;99.90;;;;;;4902152;29;20220;-80
2021/08/04 11:59:23;;;;;;;8.40;7.90;;;23.50;99.90;;;;;;4903008;29;20235;-80
2021/08/04 12:02:03;;;;;;;8.00;7.50;;;23.60;99.90;;;;;;4908450;29;20200;-80
2021/08/04 12:04:32;;;;;;;7.93;7.43;;;23.80;99.90;;;;;;4903809;29;20560;-80
2021/08/04 12:07:02;;;;;;;8.13;7.63;;;23.50;99.90;;;;;;4896830;29;20313;-80
2021/08/04 12:09:31;;;;;;;8.23;7.70;;;23.20;99.90;;;;;;4904890;29;20227;-81
2021/08/04 12:11:59;;;;;;;7.63;7.13;;;23.10;99.90;;;;;;4902075;29;20687;-80
2021/08/04 12:14:26;;;;;;;7.60;7.20;;;23.10;99.90;;;;;;4903742;29;20250;-80
2021/08/04 12:16:56;;;;;;;7.60;7.10;;;23.20;99.90;;;;;;4904691;29;21077;-79
2021/08/04 12:19:32;;;;;;;7.67;7.17;;;23.40;99.90;;;;;;4908982;29;20201;-80
2021/08/04 12:22:00;;;;;;;7.80;7.30;;;23.60;99.90;;;;;;4905016;29;20213;-80
2021/08/04 12:24:28;;;;;;;7.90;7.40;;;23.40;99.90;;;;;;4908178;29;20239;-80
2021/08/04 12:26:55;;;;;;;7.80;7.20;;;23.40;99.90;;;;;;4901844;29;20221;-80
2021/08/04 12:29:24;;;;;;;7.83;7.33;;;23.40;99.90;;;;;;4907133;29;20209;-80
2021/08/04 12:32:11;;;;;;;7.90;7.40;;;23.60;99.90;;;;;;4908445;29;20204;-79
2021/08/04 12:34:56;;;;;;;8.00;7.30;;;23.50;99.90;;;;;;4905373;29;20202;-81
2021/08/04 12:37:23;;;;;;;7.70;7.20;;;23.60;99.90;;;;;;4900733;29;20227;-81
2021/08/04 12:39:50;;;;;;;7.97;7.37;;;23.60;99.90;;;;;;4905992;29;20234;-80
2021/08/04 12:42:19;;;;;;;7.23;6.73;;;23.70;99.90;;;;;;4906946;29;20219;-81
2021/08/04 12:44:46;;;;;;;8.10;7.40;;;23.60;99.90;;;;;;4908436;29;20199;-80
2021/08/04 12:47:15;;;;;;;7.70;7.20;;;23.60;99.90;;;;;;4905360;29;20832;-80
2021/08/04 12:49:43;;;;;;;7.70;7.20;;;23.30;99.90;;;;;;4903734;29;20232;-81
2021/08/04 12:52:13;;;;;;;7.23;6.83;;;23.20;99.90;;;;;;4910020;29;20225;-80